createdAt,value
2023-02-03T00:01:02.549Z,2.58
2023-02-03T00:03:05.000Z,2.92
2023-02-03T00:05:07.621Z,3.22
2023-02-03T00:07:12.517Z,2.50
2023-02-03T00:09:15.560Z,2.80
2023-02-03T00:11:17.542Z,2.80
2023-02-03T00:13:19.508Z,2.63
2023-02-03T00:15:23.405Z,2.38
2023-02-03T00:17:25.417Z,2.35
2023-02-03T00:19:27.231Z,2.38
2023-02-03T00:21:29.211Z,2.47
2023-02-03T00:23:32.332Z,2.45
2023-02-03T00:25:34.669Z,2.15
2023-02-03T00:27:36.733Z,2.03
2023-02-03T00:29:38.575Z,2.88
2023-02-03T00:31:40.529Z,2.75
2023-02-03T00:33:42.460Z,2.78
2023-02-03T00:35:44.344Z,2.50
2023-02-03T00:37:52.629Z,2.88
2023-02-03T00:39:54.704Z,2.33
2023-02-03T00:41:58.547Z,2.72
2023-02-03T00:44:00.449Z,2.63
2023-02-03T00:46:02.376Z,2.47
2023-02-03T00:48:05.070Z,2.70
2023-02-03T00:50:08.143Z,2.45
2023-02-03T00:52:10.018Z,2.88
2023-02-03T00:54:12.248Z,3.17
2023-02-03T00:56:14.335Z,3.88
2023-02-03T00:58:17.202Z,3.70
2023-02-03T01:00:20.059Z,3.35
2023-02-03T01:02:22.195Z,3.67
2023-02-03T01:04:24.137Z,3.58
2023-02-03T01:06:26.568Z,3.92
2023-02-03T01:08:28.378Z,3.50
2023-02-03T01:10:30.628Z,3.38
2023-02-03T01:12:33.121Z,3.30
2023-02-03T01:14:35.390Z,3.08
2023-02-03T01:16:38.465Z,3.28
2023-02-03T01:18:42.015Z,2.97
2023-02-03T01:20:43.944Z,3.15
2023-02-03T01:22:45.859Z,2.60
2023-02-03T01:24:47.723Z,2.80
2023-02-03T01:26:49.679Z,2.90
2023-02-03T01:28:53.121Z,2.50
2023-02-03T01:30:55.072Z,2.63
2023-02-03T01:32:57.308Z,2.33
2023-02-03T01:34:59.231Z,2.53
2023-02-03T01:37:01.028Z,2.20
2023-02-03T01:39:09.034Z,2.50
2023-02-03T01:41:15.255Z,2.40
2023-02-03T01:43:39.068Z,2.30
2023-02-03T01:45:41.121Z,1.80
2023-02-03T01:47:48.984Z,2.35
2023-02-03T01:50:15.894Z,2.25
2023-02-03T01:52:18.061Z,2.30
2023-02-03T01:54:27.049Z,2.35
2023-02-03T01:56:32.835Z,2.25
2023-02-03T01:58:39.970Z,2.22
2023-02-03T02:00:43.687Z,2.33
2023-02-03T02:02:49.216Z,2.58
2023-02-03T02:04:59.575Z,2.72
2023-02-03T02:07:02.301Z,2.50
2023-02-03T02:09:04.902Z,1.70
2023-02-03T02:11:07.673Z,2.42
2023-02-03T02:13:09.594Z,2.33
2023-02-03T02:15:11.615Z,2.50
2023-02-03T02:17:33.825Z,2.90
2023-02-03T02:19:58.833Z,2.78
2023-02-03T02:22:18.714Z,3.05
2023-02-03T02:24:51.433Z,2.78
2023-02-03T02:27:06.207Z,2.40
2023-02-03T02:29:41.540Z,3.20
2023-02-03T02:32:06.385Z,2.75
2023-02-03T02:34:35.241Z,2.50
2023-02-03T02:36:56.814Z,2.40
2023-02-03T02:39:10.533Z,3.00
2023-02-03T02:41:44.956Z,2.92
2023-02-03T02:44:13.194Z,2.80
2023-02-03T02:46:24.422Z,2.58
2023-02-03T02:48:48.316Z,3.00
2023-02-03T02:50:54.026Z,3.15
2023-02-03T02:52:57.482Z,2.72
2023-02-03T02:55:08.378Z,3.15
2023-02-03T02:57:13.742Z,2.88
2023-02-03T02:59:16.619Z,2.75
2023-02-03T03:01:19.384Z,3.17
2023-02-03T03:03:24.218Z,2.95
2023-02-03T03:05:26.946Z,3.17
2023-02-03T03:07:30.432Z,2.60
2023-02-03T03:09:55.431Z,2.60
2023-02-03T03:12:31.887Z,2.88
2023-02-03T03:14:36.649Z,3.13
2023-02-03T03:16:44.495Z,2.80
2023-02-03T03:19:11.841Z,2.70
2023-02-03T03:21:20.231Z,3.35
2023-02-03T03:23:32.397Z,2.78
2023-02-03T03:25:46.519Z,2.75
2023-02-03T03:27:57.302Z,2.80
2023-02-03T03:30:13.369Z,2.73
2023-02-03T03:32:15.943Z,2.63
2023-02-03T03:34:18.683Z,2.88
2023-02-03T03:36:33.369Z,2.85
2023-02-03T03:38:44.431Z,2.80
2023-02-03T03:41:04.365Z,2.80
2023-02-03T03:43:14.938Z,2.83
2023-02-03T03:45:20.143Z,2.90
2023-02-03T03:47:35.253Z,2.72
2023-02-03T03:49:41.193Z,2.75
2023-02-03T03:51:55.525Z,2.70
2023-02-03T03:54:05.131Z,2.80
2023-02-03T03:56:11.348Z,2.75
2023-02-03T03:58:19.872Z,2.90
2023-02-03T04:00:25.703Z,2.92
2023-02-03T04:02:30.434Z,2.72
2023-02-03T04:04:35.569Z,2.85
2023-02-03T04:06:42.639Z,2.72
2023-02-03T04:08:44.599Z,2.92
2023-02-03T04:10:46.653Z,3.30
2023-02-03T04:12:48.495Z,2.90
2023-02-03T04:14:50.469Z,2.83
2023-02-03T04:16:52.392Z,3.05
2023-02-03T04:18:55.272Z,3.08
2023-02-03T04:20:57.127Z,3.15
2023-02-03T04:22:59.858Z,3.10
2023-02-03T04:25:01.813Z,3.10
2023-02-03T04:27:05.488Z,3.33
2023-02-03T04:29:07.536Z,2.85
2023-02-03T04:31:09.471Z,2.40
2023-02-03T04:33:11.407Z,3.10
2023-02-03T04:35:14.851Z,3.10
2023-02-03T04:37:16.757Z,3.33
2023-02-03T04:39:18.734Z,3.10
2023-02-03T04:41:20.662Z,3.30
2023-02-03T04:43:22.596Z,2.70
2023-02-03T04:45:24.532Z,3.33
2023-02-03T04:47:26.366Z,2.70
2023-02-03T04:49:28.241Z,3.05
2023-02-03T04:51:30.392Z,2.75
2023-02-03T04:53:32.810Z,3.10
2023-02-03T04:55:35.631Z,2.80
2023-02-03T04:57:37.507Z,3.10
2023-02-03T04:59:39.452Z,3.10
2023-02-03T05:01:41.300Z,3.08
2023-02-03T05:03:43.319Z,3.10
2023-02-03T05:05:45.296Z,2.90
2023-02-03T05:07:47.392Z,3.20
2023-02-03T05:09:49.296Z,2.80
2023-02-03T05:11:51.304Z,2.83
2023-02-03T05:13:54.633Z,2.97
2023-02-03T05:15:56.450Z,3.58
2023-02-03T05:17:58.420Z,3.30
2023-02-03T05:20:00.253Z,3.47
2023-02-03T05:22:02.191Z,3.42
2023-02-03T05:24:08.138Z,3.22
2023-02-03T05:26:10.380Z,3.83
2023-02-03T05:28:12.479Z,3.55
2023-02-03T05:30:14.521Z,3.63
2023-02-03T05:32:16.441Z,3.47
2023-02-03T05:34:18.308Z,3.65
2023-02-03T05:36:21.483Z,3.90
2023-02-03T05:38:25.673Z,3.92
2023-02-03T05:40:47.065Z,3.33
2023-02-03T05:42:49.590Z,3.97
2023-02-03T05:44:51.548Z,3.60
2023-02-03T05:46:56.896Z,3.67
2023-02-03T05:48:58.800Z,4.15
2023-02-03T05:51:00.697Z,3.58
2023-02-03T05:53:04.892Z,3.80
2023-02-03T05:55:07.103Z,3.90
2023-02-03T05:57:08.929Z,4.10
2023-02-03T05:59:10.978Z,3.90
2023-02-03T06:01:12.814Z,3.83
2023-02-03T06:03:14.744Z,3.55
2023-02-03T06:05:16.726Z,4.07
2023-02-03T06:07:24.317Z,4.15
2023-02-03T06:09:26.224Z,4.05
2023-02-03T06:11:28.647Z,3.83
2023-02-03T06:13:30.526Z,4.03
2023-02-03T06:15:32.488Z,4.25
2023-02-03T06:17:36.203Z,4.15
2023-02-03T06:19:38.334Z,4.20
2023-02-03T06:21:40.256Z,4.28
2023-02-03T06:23:43.112Z,4.50
2023-02-03T06:25:49.751Z,4.95
2023-02-03T06:27:52.107Z,4.72
2023-02-03T06:29:54.096Z,5.00
2023-02-03T06:31:56.104Z,5.47
2023-02-03T06:33:59.663Z,6.00
2023-02-03T06:36:01.626Z,7.82
2023-02-03T06:38:03.453Z,6.90
2023-02-03T06:40:06.451Z,6.00
2023-02-03T06:42:08.484Z,5.93
2023-02-03T06:44:10.416Z,5.93
2023-02-03T06:46:12.773Z,5.60
2023-02-03T06:48:15.046Z,5.35
2023-02-03T06:50:17.257Z,5.82
2023-02-03T06:52:19.454Z,5.57
2023-02-03T06:54:22.796Z,6.22
2023-02-03T06:56:24.943Z,6.07
2023-02-03T06:58:26.806Z,5.75
2023-02-03T07:00:29.021Z,5.80
2023-02-03T07:02:31.286Z,5.50
2023-02-03T07:04:33.328Z,5.05
2023-02-03T07:06:35.364Z,5.20
2023-02-03T07:08:37.281Z,4.75
2023-02-03T07:10:39.131Z,4.85
2023-02-03T07:12:41.069Z,5.38
2023-02-03T07:14:42.935Z,4.80
2023-02-03T07:16:44.898Z,4.93
2023-02-03T07:18:48.239Z,5.10
2023-02-03T07:20:51.796Z,4.20
2023-02-03T07:22:55.459Z,4.43
2023-02-03T07:24:57.362Z,4.10
2023-02-03T07:26:59.292Z,4.85
2023-02-03T07:29:01.264Z,4.40
2023-02-03T07:31:05.027Z,4.55
2023-02-03T07:33:08.153Z,4.00
2023-02-03T07:35:10.099Z,4.28
2023-02-03T07:37:12.032Z,4.28
2023-02-03T07:39:14.032Z,4.03
2023-02-03T07:41:18.252Z,4.80
2023-02-03T07:43:20.816Z,4.88
2023-02-03T07:45:24.996Z,4.25
2023-02-03T07:47:27.876Z,4.40
2023-02-03T07:49:29.854Z,4.03
2023-02-03T07:51:32.163Z,3.90
2023-02-03T07:53:35.576Z,4.15
2023-02-03T07:55:40.944Z,4.50
2023-02-03T07:57:43.802Z,4.07
2023-02-03T07:59:47.106Z,4.82
2023-02-03T08:01:49.169Z,5.18
2023-02-03T08:03:55.131Z,4.70
2023-02-03T08:05:57.225Z,5.20
2023-02-03T08:07:59.682Z,5.00
2023-02-03T08:10:01.817Z,4.50
2023-02-03T08:12:04.061Z,4.72
2023-02-03T08:14:06.000Z,4.43
2023-02-03T08:16:07.968Z,4.93
2023-02-03T08:18:10.115Z,4.82
2023-02-03T08:20:14.905Z,5.30
2023-02-03T08:22:16.902Z,5.10
2023-02-03T08:24:21.172Z,4.25
2023-02-03T08:26:23.263Z,4.35
2023-02-03T08:28:26.338Z,4.15
2023-02-03T08:30:28.489Z,4.47
2023-02-03T08:32:30.759Z,3.95
2023-02-03T08:36:54.674Z,4.40
2023-02-03T08:39:01.317Z,4.65
2023-02-03T08:41:09.148Z,5.28
2023-02-03T08:43:11.523Z,4.75
2023-02-03T08:45:13.542Z,6.90
2023-02-03T08:47:16.850Z,5.13
2023-02-03T08:49:19.801Z,7.60
2023-02-03T08:51:25.015Z,6.97
2023-02-03T08:53:28.346Z,5.20
2023-02-03T08:55:30.408Z,6.15
2023-02-03T08:57:37.222Z,4.90
2023-02-03T08:59:42.944Z,3.70
2023-02-03T09:01:46.189Z,3.60
2023-02-03T09:03:48.299Z,3.38
2023-02-03T09:05:50.289Z,3.63
2023-02-03T09:07:53.489Z,3.30
2023-02-03T09:09:56.218Z,4.00
2023-02-03T09:12:02.633Z,4.07
2023-02-03T09:14:06.067Z,3.10
2023-02-03T09:16:10.250Z,4.00
2023-02-03T09:18:14.280Z,3.90
2023-02-03T09:20:16.469Z,3.42
2023-02-03T09:22:18.471Z,4.28
2023-02-03T09:24:20.694Z,2.97
2023-02-03T09:26:23.581Z,3.22
2023-02-03T09:28:25.973Z,2.70
2023-02-03T09:30:28.322Z,3.85
2023-02-03T09:32:30.601Z,3.35
2023-02-03T09:34:33.564Z,3.35
2023-02-03T09:36:36.159Z,3.00
2023-02-03T09:38:38.789Z,3.10
2023-02-03T09:40:42.838Z,3.05
2023-02-03T09:43:14.063Z,2.72
2023-02-03T09:45:26.581Z,3.03
2023-02-03T09:47:32.853Z,3.22
2023-02-03T09:49:47.827Z,2.70
2023-02-03T09:51:56.337Z,2.70
2023-02-03T09:54:07.455Z,2.65
2023-02-03T09:56:30.999Z,2.38
2023-02-03T09:58:36.291Z,2.40
2023-02-03T10:00:49.138Z,2.55
2023-02-03T10:03:14.338Z,2.85
2023-02-03T10:05:26.705Z,2.65
2023-02-03T10:08:01.956Z,2.20
2023-02-03T10:10:19.272Z,2.67
2023-02-03T10:12:49.738Z,2.53
2023-02-03T10:15:09.439Z,2.40
2023-02-03T10:17:41.912Z,1.80
2023-02-03T10:20:17.851Z,1.70
2023-02-03T10:22:26.160Z,2.03
2023-02-03T10:24:40.862Z,2.45
2023-02-03T10:26:43.054Z,2.80
2023-02-03T10:29:07.217Z,2.75
2023-02-03T10:31:19.758Z,2.42
2023-02-03T10:33:32.602Z,2.88
2023-02-03T10:35:51.055Z,3.45
2023-02-03T10:37:58.349Z,3.72
2023-02-03T10:40:04.477Z,3.35
2023-02-03T10:42:07.502Z,2.53
2023-02-03T10:44:13.605Z,2.72
2023-02-03T10:46:19.476Z,2.53
2023-02-03T10:48:23.286Z,3.40
2023-02-03T10:50:32.044Z,4.07
2023-02-03T10:52:36.254Z,3.60
2023-02-03T10:54:39.224Z,3.95
2023-02-03T10:56:41.513Z,3.58
2023-02-03T10:58:55.843Z,9.63
2023-02-03T11:01:07.171Z,9.52
2023-02-03T11:03:25.501Z,8.40
2023-02-03T11:05:28.673Z,8.13
2023-02-03T11:07:30.897Z,6.00
2023-02-03T11:09:38.880Z,5.07
2023-02-03T11:11:42.170Z,6.05
2023-02-03T11:13:46.107Z,7.20
2023-02-03T11:15:58.768Z,3.78
2023-02-03T11:18:00.903Z,6.78
2023-02-03T11:20:13.913Z,7.55
2023-02-03T11:22:37.391Z,4.30
2023-02-03T11:24:42.063Z,5.88
2023-02-03T11:26:49.479Z,5.55
2023-02-03T11:28:57.405Z,8.27
2023-02-03T11:31:01.803Z,7.47
2023-02-03T11:33:20.011Z,8.40
2023-02-03T11:35:30.130Z,5.30
2023-02-03T11:37:39.207Z,3.58
2023-02-03T11:39:41.683Z,2.95
2023-02-03T11:41:43.894Z,3.60
2023-02-03T11:43:48.705Z,3.50
2023-02-03T11:45:59.842Z,3.95
2023-02-03T11:48:11.118Z,3.80
2023-02-03T11:50:44.149Z,3.00
2023-02-03T11:52:59.019Z,4.68
2023-02-03T11:55:15.099Z,4.95
2023-02-03T11:57:53.124Z,4.53
2023-02-03T12:00:13.423Z,4.50
2023-02-03T12:02:46.331Z,3.92
2023-02-03T12:04:58.195Z,4.45
2023-02-03T12:07:31.539Z,4.72
2023-02-03T12:09:56.831Z,4.25
2023-02-03T12:12:18.402Z,5.78
2023-02-03T12:15:06.581Z,9.48
2023-02-03T12:17:25.475Z,5.55
2023-02-03T12:19:48.539Z,5.03
2023-02-03T12:22:00.964Z,4.68
2023-02-03T12:24:25.784Z,5.72
2023-02-03T12:26:47.429Z,5.30
2023-02-03T12:28:51.403Z,3.97
2023-02-03T12:31:00.709Z,4.90
2023-02-03T12:33:16.546Z,5.22
2023-02-03T12:35:27.060Z,5.75
2023-02-03T12:37:34.636Z,4.95
2023-02-03T12:39:48.342Z,9.50
2023-02-03T12:42:01.045Z,5.80
2023-02-03T12:44:17.870Z,8.45
2023-02-03T12:46:45.374Z,5.35
2023-02-03T12:49:21.544Z,4.97
2023-02-03T12:51:39.566Z,7.15
2023-02-03T12:53:49.207Z,5.78
2023-02-03T12:56:01.288Z,4.93
2023-02-03T12:58:11.976Z,6.28
2023-02-03T13:00:21.976Z,4.85
2023-02-03T13:02:29.921Z,4.78
2023-02-03T13:04:36.335Z,5.68
2023-02-03T13:06:52.979Z,5.05
2023-02-03T13:09:09.162Z,5.47
2023-02-03T13:11:29.212Z,9.68
2023-02-03T13:13:40.200Z,7.20
2023-02-03T13:15:50.802Z,7.10
2023-02-03T13:18:11.632Z,6.00
2023-02-03T13:20:23.980Z,5.45
2023-02-03T13:22:26.262Z,7.25
2023-02-03T13:24:34.168Z,5.80
2023-02-03T13:26:55.573Z,5.07
2023-02-03T13:29:22.685Z,4.88
2023-02-03T13:31:27.854Z,5.18
2023-02-03T13:33:48.958Z,5.32
2023-02-03T13:35:59.893Z,4.97
2023-02-03T13:38:53.170Z,5.70
2023-02-03T13:41:24.853Z,7.82
2023-02-03T13:43:38.722Z,6.93
2023-02-03T13:45:45.455Z,6.18
2023-02-03T13:47:53.416Z,8.75
2023-02-03T13:50:02.970Z,7.50
2023-02-03T13:52:05.282Z,8.93
2023-02-03T13:54:14.826Z,7.85
2023-02-03T13:56:25.648Z,6.85
2023-02-03T13:58:31.296Z,7.05
2023-02-03T14:00:45.246Z,6.60
2023-02-03T14:02:54.799Z,6.90
2023-02-03T14:04:59.938Z,7.20
2023-02-03T14:07:03.901Z,7.63
2023-02-03T14:09:36.103Z,8.07
2023-02-03T14:14:07.443Z,12.18
2023-02-03T14:16:39.629Z,11.50
2023-02-03T14:20:52.920Z,12.30
2023-02-03T14:23:06.545Z,10.25
2023-02-03T14:25:09.763Z,10.50
2023-02-03T14:27:25.288Z,8.68
2023-02-03T14:29:38.009Z,7.10
2023-02-03T14:32:05.398Z,8.25
2023-02-03T14:34:19.224Z,7.97
2023-02-03T14:36:41.836Z,7.72
2023-02-03T14:38:43.994Z,8.70
2023-02-03T14:40:54.995Z,7.68
2023-02-03T14:43:38.071Z,8.40
2023-02-03T14:45:57.828Z,9.13
2023-02-03T14:48:14.660Z,8.90
2023-02-03T14:50:23.515Z,8.63
2023-02-03T14:53:07.175Z,9.90
2023-02-03T14:55:36.071Z,8.65
2023-02-03T14:57:45.616Z,8.57
2023-02-03T15:00:27.740Z,9.15
2023-02-03T15:02:32.708Z,8.07
2023-02-03T15:04:35.340Z,8.52
2023-02-03T15:06:43.300Z,9.07
2023-02-03T15:08:48.764Z,8.88
2023-02-03T15:10:56.665Z,9.05
2023-02-03T15:12:59.206Z,8.00
2023-02-03T15:15:29.356Z,9.02
2023-02-03T15:17:32.497Z,9.25
2023-02-03T15:19:38.605Z,9.55
2023-02-03T15:21:42.647Z,9.07
2023-02-03T15:23:52.097Z,10.02
2023-02-03T15:25:59.274Z,9.15
2023-02-03T15:28:20.762Z,8.52
2023-02-03T15:30:28.485Z,8.88
2023-02-03T15:32:40.937Z,7.88
2023-02-03T15:34:51.406Z,8.02
2023-02-03T15:36:58.001Z,7.63
2023-02-03T15:39:11.824Z,7.53
2023-02-03T15:41:23.287Z,7.75
2023-02-03T15:43:34.140Z,8.73
2023-02-03T15:45:54.776Z,8.82
2023-02-03T15:48:22.188Z,7.53
2023-02-03T15:50:47.864Z,7.50
2023-02-03T15:52:55.661Z,7.22
2023-02-03T15:55:21.623Z,7.40
2023-02-03T15:57:26.137Z,7.70
2023-02-03T15:59:31.220Z,6.45
2023-02-03T16:01:35.811Z,6.60
2023-02-03T16:03:44.867Z,6.63
2023-02-03T16:05:49.876Z,7.15
2023-02-03T16:07:52.689Z,7.20
2023-02-03T16:09:57.214Z,7.97
2023-02-03T16:12:22.354Z,7.45
2023-02-03T16:14:36.764Z,7.85
2023-02-03T16:17:04.937Z,7.80
2023-02-03T16:19:22.648Z,6.63
2023-02-03T16:21:35.123Z,7.85
2023-02-03T16:23:49.871Z,7.53
2023-02-03T16:26:15.746Z,6.70
2023-02-03T16:28:37.237Z,7.88
2023-02-03T16:30:58.198Z,7.15
2023-02-03T16:33:27.708Z,8.10
2023-02-03T16:35:49.450Z,7.13
2023-02-03T16:38:11.659Z,7.13
2023-02-03T16:40:35.557Z,7.35
2023-02-03T16:42:58.685Z,7.07
2023-02-03T16:45:19.282Z,6.80
2023-02-03T16:47:46.266Z,6.57
2023-02-03T16:50:09.955Z,7.38
2023-02-03T16:52:16.443Z,7.53
2023-02-03T16:54:19.736Z,8.50
2023-02-03T16:56:21.827Z,8.48
2023-02-03T16:58:24.389Z,8.50
2023-02-03T17:00:27.613Z,7.47
2023-02-03T17:02:31.101Z,7.95
2023-02-03T17:04:38.413Z,8.15
2023-02-03T17:06:41.710Z,8.70
2023-02-03T17:08:43.872Z,8.80
2023-02-03T17:10:48.725Z,9.18
2023-02-03T17:12:53.345Z,8.93
2023-02-03T17:14:58.598Z,8.55
2023-02-03T17:17:02.170Z,3.05
2023-02-03T17:19:04.869Z,3.22
2023-02-03T17:21:09.891Z,5.25
2023-02-03T17:23:16.896Z,6.72
2023-02-03T17:25:21.803Z,6.75
2023-02-03T17:27:26.591Z,4.50
2023-02-03T17:29:29.680Z,5.90
2023-02-03T17:31:33.027Z,4.80
2023-02-03T17:33:35.411Z,4.90
2023-02-03T17:35:45.888Z,6.15
2023-02-03T17:37:48.185Z,6.70
2023-02-03T17:54:02.415Z,4.78
2023-02-03T17:56:14.081Z,5.57
2023-02-03T17:58:18.693Z,3.83
2023-02-03T18:00:22.900Z,5.75
2023-02-03T18:02:25.219Z,4.50
2023-02-03T18:04:27.753Z,4.97
2023-02-03T18:06:32.045Z,5.25
2023-02-03T18:08:44.021Z,6.85
2023-02-03T18:10:47.578Z,4.82
2023-02-03T18:12:49.708Z,5.55
2023-02-03T18:14:51.964Z,4.82
2023-02-03T18:16:55.865Z,5.50
2023-02-03T18:19:04.347Z,5.47
2023-02-03T18:21:07.057Z,5.00
2023-02-03T18:23:11.298Z,5.25
2023-02-03T18:25:17.126Z,7.47
2023-02-03T18:27:20.031Z,4.53
2023-02-03T18:29:25.059Z,3.58
2023-02-03T18:31:28.132Z,3.60
2023-02-03T18:33:31.190Z,4.50
2023-02-03T18:35:35.077Z,5.10
2023-02-03T18:37:43.264Z,3.60
2023-02-03T18:39:51.603Z,3.60
2023-02-03T18:41:54.894Z,4.20
2023-02-03T18:43:57.757Z,4.50
2023-02-03T18:46:05.864Z,4.75
2023-02-03T18:48:10.105Z,2.45
2023-02-03T18:50:12.802Z,8.18
2023-02-03T18:52:18.536Z,8.98
2023-02-03T18:54:23.786Z,7.82
2023-02-03T18:56:35.656Z,9.77
2023-02-03T18:58:39.846Z,10.63
2023-02-03T19:00:44.374Z,11.50
2023-02-03T19:02:55.036Z,11.27
2023-02-03T19:04:57.898Z,11.52
2023-02-03T19:07:02.912Z,8.50
2023-02-03T19:09:06.210Z,7.78
2023-02-03T19:11:12.518Z,8.57
2023-02-03T19:13:15.520Z,9.15
2023-02-03T19:15:20.134Z,8.63
2023-02-03T19:17:24.384Z,9.18
2023-02-03T19:19:27.960Z,9.82
2023-02-03T19:21:30.459Z,10.45
2023-02-03T19:23:33.693Z,10.30
2023-02-03T19:25:39.132Z,9.77
2023-02-03T19:27:43.373Z,10.57
2023-02-03T19:29:47.353Z,10.10
2023-02-03T19:31:53.422Z,10.68
2023-02-03T19:34:03.312Z,10.23
2023-02-03T19:36:07.554Z,9.55
2023-02-03T19:38:11.864Z,9.30
2023-02-03T19:40:18.293Z,9.13
2023-02-03T19:42:22.103Z,9.55
2023-02-03T19:44:26.122Z,12.63
2023-02-03T19:46:32.762Z,11.80
2023-02-03T19:48:36.343Z,12.45
2023-02-03T19:50:41.565Z,13.15
2023-02-03T19:52:45.139Z,13.57
2023-02-03T19:54:49.264Z,12.30
2023-02-03T19:56:54.185Z,13.32
2023-02-03T19:58:57.192Z,13.38
2023-02-03T20:01:03.463Z,16.15
2023-02-03T20:03:09.704Z,16.92
2023-02-03T20:05:16.143Z,17.45
2023-02-03T20:07:18.965Z,16.40
2023-02-03T20:09:22.171Z,14.77
2023-02-03T20:11:26.108Z,15.05
2023-02-03T20:13:29.501Z,13.77
2023-02-03T20:15:32.656Z,12.95
2023-02-03T20:17:45.687Z,12.52
2023-02-03T20:19:49.971Z,12.27
2023-02-03T20:21:55.233Z,12.45
2023-02-03T20:23:58.322Z,11.80
2023-02-03T20:26:01.277Z,11.85
2023-02-03T20:28:08.057Z,11.60
2023-02-03T20:30:13.098Z,11.55
2023-02-03T20:32:18.642Z,10.85
2023-02-03T20:34:21.474Z,11.50
2023-02-03T20:36:25.082Z,11.27
2023-02-03T20:38:30.252Z,11.60
2023-02-03T20:40:33.424Z,11.40
2023-02-03T20:42:36.371Z,11.70
2023-02-03T20:44:41.581Z,12.60
2023-02-03T20:46:46.458Z,12.88
2023-02-03T20:48:49.093Z,13.05
2023-02-03T20:50:54.328Z,12.88
2023-02-03T20:53:00.272Z,12.52
2023-02-03T20:55:13.236Z,14.10
2023-02-03T20:57:18.282Z,11.07
2023-02-03T20:59:22.359Z,13.95
2023-02-03T21:01:29.811Z,12.57
2023-02-03T21:03:53.301Z,11.25
2023-02-03T21:05:57.441Z,11.15
2023-02-03T21:08:02.849Z,12.85
2023-02-03T21:10:25.207Z,12.90
2023-02-03T21:12:31.014Z,12.77
2023-02-03T21:14:43.241Z,12.90
2023-02-03T21:16:47.887Z,13.38
2023-02-03T21:18:54.911Z,11.82
2023-02-03T21:20:58.351Z,11.73
2023-02-03T21:23:02.381Z,12.45
2023-02-03T21:25:08.262Z,11.80
2023-02-03T21:27:34.596Z,11.68
2023-02-03T21:29:37.228Z,12.85
2023-02-03T21:31:40.778Z,12.02
2023-02-03T21:33:44.072Z,13.35
2023-02-03T21:35:47.657Z,12.60
2023-02-03T21:38:02.085Z,11.60
2023-02-03T21:40:27.067Z,13.35
2023-02-03T21:42:42.808Z,12.43
2023-02-03T21:44:46.436Z,12.35
2023-02-03T21:46:49.090Z,12.85
2023-02-03T21:48:53.713Z,13.30
2023-02-03T21:51:16.907Z,12.15
2023-02-03T21:53:36.083Z,12.90
2023-02-03T21:55:41.141Z,12.50
2023-02-03T21:57:43.713Z,12.18
2023-02-03T21:59:50.289Z,11.50
2023-02-03T22:01:58.644Z,11.82
2023-02-03T22:04:02.602Z,11.65
2023-02-03T22:06:25.805Z,11.85
2023-02-03T22:08:34.255Z,11.38
2023-02-03T22:10:36.361Z,10.60
2023-02-03T22:12:38.464Z,10.52
2023-02-03T22:14:40.611Z,11.90
2023-02-03T22:16:43.784Z,10.05
2023-02-03T22:18:47.604Z,11.38
2023-02-03T22:20:49.654Z,11.50
2023-02-03T22:22:51.692Z,10.88
2023-02-03T22:24:53.821Z,11.77
2023-02-03T22:27:00.305Z,10.68
2023-02-03T22:29:02.811Z,10.70
2023-02-03T22:31:05.411Z,11.38
2023-02-03T22:33:07.905Z,11.10
2023-02-03T22:35:10.028Z,11.15
2023-02-03T22:37:11.969Z,10.70
2023-02-03T22:39:14.046Z,10.20
2023-02-03T22:41:16.022Z,10.45
2023-02-03T22:43:17.927Z,9.82
2023-02-03T22:45:21.794Z,10.15
2023-02-03T22:47:24.714Z,9.40
2023-02-03T22:49:26.593Z,9.98
2023-02-03T22:51:28.515Z,8.77
2023-02-03T22:53:30.519Z,8.90
2023-02-03T22:55:32.828Z,9.38
2023-02-03T22:57:35.232Z,8.05
2023-02-03T22:59:37.179Z,8.15
2023-02-03T23:01:39.071Z,8.32
2023-02-03T23:03:41.019Z,9.43
2023-02-03T23:05:43.012Z,7.90
2023-02-03T23:07:46.799Z,7.38
2023-02-03T23:09:48.773Z,7.78
2023-02-03T23:11:51.738Z,8.23
2023-02-03T23:13:55.695Z,7.47
2023-02-03T23:15:57.811Z,7.15
2023-02-03T23:17:59.801Z,7.20
2023-02-03T23:20:01.872Z,8.80
2023-02-03T23:22:03.904Z,12.40
2023-02-03T23:24:07.426Z,13.77
2023-02-03T23:26:09.423Z,17.30
2023-02-03T23:28:11.423Z,14.50
2023-02-03T23:30:14.566Z,8.23
2023-02-03T23:32:16.514Z,8.38
2023-02-03T23:34:37.233Z,7.55
2023-02-03T23:36:39.250Z,7.57
2023-02-03T23:38:41.164Z,7.32
2023-02-03T23:40:43.479Z,7.65
2023-02-03T23:42:45.560Z,6.75
2023-02-03T23:44:48.445Z,7.90
2023-02-03T23:46:50.747Z,7.78
2023-02-03T23:48:52.880Z,6.97
2023-02-03T23:50:54.844Z,7.93
2023-02-03T23:52:56.739Z,6.50
2023-02-03T23:54:58.638Z,6.30
2023-02-03T23:57:00.535Z,6.95
2023-02-03T23:59:02.482Z,6.78
